sensor_id;sensor_type;location;lat;lon;timestamp;temperature;humidity
20712;DHT22;10517;50.742;4.224;2023-10-31T00:01:21;11.60;99.90
20712;DHT22;10517;50.742;4.224;2023-10-31T00:03:47;11.60;99.90
20712;DHT22;10517;50.742;4.224;2023-10-31T00:06:13;11.70;99.90
20712;DHT22;10517;50.742;4.224;2023-10-31T00:08:39;11.70;99.90
20712;DHT22;10517;50.742;4.224;2023-10-31T00:11:04;11.70;99.90
20712;DHT22;10517;50.742;4.224;2023-10-31T00:13:31;11.70;99.90
20712;DHT22;10517;50.742;4.224;2023-10-31T00:15:56;11.70;99.90
20712;DHT22;10517;50.742;4.224;2023-10-31T00:18:22;11.70;99.90
20712;DHT22;10517;50.742;4.224;2023-10-31T00:20:48;11.70;99.90
20712;DHT22;10517;50.742;4.224;2023-10-31T00:23:14;11.70;99.90
20712;DHT22;10517;50.742;4.224;2023-10-31T00:25:40;11.70;99.90
20712;DHT22;10517;50.742;4.224;2023-10-31T00:28:06;11.70;99.90
20712;DHT22;10517;50.742;4.224;2023-10-31T00:30:31;11.70;99.90
20712;DHT22;10517;50.742;4.224;2023-10-31T00:32:57;11.60;99.90
20712;DHT22;10517;50.742;4.224;2023-10-31T00:35:23;11.60;99.90
20712;DHT22;10517;50.742;4.224;2023-10-31T00:37:48;11.60;99.90
20712;DHT22;10517;50.742;4.224;2023-10-31T00:40:15;11.60;99.90
20712;DHT22;10517;50.742;4.224;2023-10-31T00:42:42;11.60;99.90
20712;DHT22;10517;50.742;4.224;2023-10-31T00:45:08;11.60;99.90
20712;DHT22;10517;50.742;4.224;2023-10-31T00:47:34;11.70;99.90
20712;DHT22;10517;50.742;4.224;2023-10-31T00:50:00;11.60;99.90
20712;DHT22;10517;50.742;4.224;2023-10-31T00:52:26;11.60;99.90
20712;DHT22;10517;50.742;4.224;2023-10-31T00:54:51;11.80;99.90
20712;DHT22;10517;50.742;4.224;2023-10-31T00:57:17;11.80;99.90
20712;DHT22;10517;50.742;4.224;2023-10-31T00:59:43;11.80;99.90
20712;DHT22;10517;50.742;4.224;2023-10-31T01:02:09;11.80;99.90
20712;DHT22;10517;50.742;4.224;2023-10-31T01:04:36;11.80;99.90
20712;DHT22;10517;50.742;4.224;2023-10-31T01:07:01;11.80;99.90
20712;DHT22;10517;50.742;4.224;2023-10-31T01:09:27;11.80;99.90
20712;DHT22;10517;50.742;4.224;2023-10-31T01:11:52;11.80;99.90
20712;DHT22;10517;50.742;4.224;2023-10-31T01:14:19;11.70;99.90
20712;DHT22;10517;50.742;4.224;2023-10-31T01:16:44;11.80;99.90
20712;DHT22;10517;50.742;4.224;2023-10-31T01:19:10;11.80;99.90
20712;DHT22;10517;50.742;4.224;2023-10-31T01:21:36;11.80;99.90
20712;DHT22;10517;50.742;4.224;2023-10-31T01:24:01;11.90;99.90
20712;DHT22;10517;50.742;4.224;2023-10-31T01:26:27;11.90;99.90
20712;DHT22;10517;50.742;4.224;2023-10-31T01:28:52;11.90;99.90
20712;DHT22;10517;50.742;4.224;2023-10-31T01:31:18;11.90;99.90
20712;DHT22;10517;50.742;4.224;2023-10-31T01:33:44;11.90;99.90
20712;DHT22;10517;50.742;4.224;2023-10-31T01:36:10;11.80;99.90
20712;DHT22;10517;50.742;4.224;2023-10-31T01:38:38;11.80;99.90
20712;DHT22;10517;50.742;4.224;2023-10-31T01:41:03;11.70;99.90
20712;DHT22;10517;50.742;4.224;2023-10-31T01:43:34;11.70;99.90
20712;DHT22;10517;50.742;4.224;2023-10-31T01:46:00;11.70;99.90
20712;DHT22;10517;50.742;4.224;2023-10-31T01:48:30;11.60;99.90
20712;DHT22;10517;50.742;4.224;2023-10-31T01:50:58;11.60;99.90
20712;DHT22;10517;50.742;4.224;2023-10-31T01:53:25;11.60;99.90
20712;DHT22;10517;50.742;4.224;2023-10-31T01:55:52;11.60;99.90
20712;DHT22;10517;50.742;4.224;2023-10-31T01:58:20;11.50;99.90
20712;DHT22;10517;50.742;4.224;2023-10-31T02:00:49;11.50;99.90
20712;DHT22;10517;50.742;4.224;2023-10-31T02:03:16;11.50;99.90
20712;DHT22;10517;50.742;4.224;2023-10-31T02:05:41;11.50;99.90
20712;DHT22;10517;50.742;4.224;2023-10-31T02:08:07;11.40;99.90
20712;DHT22;10517;50.742;4.224;2023-10-31T02:10:34;11.40;99.90
20712;DHT22;10517;50.742;4.224;2023-10-31T02:13:13;11.40;99.90
20712;DHT22;10517;50.742;4.224;2023-10-31T02:15:39;11.40;99.90
20712;DHT22;10517;50.742;4.224;2023-10-31T02:18:05;11.40;99.90
20712;DHT22;10517;50.742;4.224;2023-10-31T02:20:31;11.30;99.90
20712;DHT22;10517;50.742;4.224;2023-10-31T02:22:57;11.30;99.90
20712;DHT22;10517;50.742;4.224;2023-10-31T02:25:23;11.30;99.90
20712;DHT22;10517;50.742;4.224;2023-10-31T02:27:48;11.20;99.90
20712;DHT22;10517;50.742;4.224;2023-10-31T02:30:14;11.20;99.90
20712;DHT22;10517;50.742;4.224;2023-10-31T02:32:40;11.00;99.90
20712;DHT22;10517;50.742;4.224;2023-10-31T02:35:07;11.00;99.90
20712;DHT22;10517;50.742;4.224;2023-10-31T02:37:33;11.00;99.90
20712;DHT22;10517;50.742;4.224;2023-10-31T02:39:58;11.00;99.90
20712;DHT22;10517;50.742;4.224;2023-10-31T02:42:25;11.00;99.90
20712;DHT22;10517;50.742;4.224;2023-10-31T02:44:51;11.00;99.90
20712;DHT22;10517;50.742;4.224;2023-10-31T02:47:16;11.00;99.90
20712;DHT22;10517;50.742;4.224;2023-10-31T02:49:42;11.00;99.90
20712;DHT22;10517;50.742;4.224;2023-10-31T02:52:07;11.10;99.90
20712;DHT22;10517;50.742;4.224;2023-10-31T02:54:33;11.10;99.90
20712;DHT22;10517;50.742;4.224;2023-10-31T02:56:58;11.10;99.90
20712;DHT22;10517;50.742;4.224;2023-10-31T02:59:24;11.10;99.90
20712;DHT22;10517;50.742;4.224;2023-10-31T03:01:50;11.10;99.90
20712;DHT22;10517;50.742;4.224;2023-10-31T03:04:15;11.30;99.90
20712;DHT22;10517;50.742;4.224;2023-10-31T03:06:41;11.30;99.90
20712;DHT22;10517;50.742;4.224;2023-10-31T03:09:07;11.20;99.90
20712;DHT22;10517;50.742;4.224;2023-10-31T03:11:33;11.10;99.90
20712;DHT22;10517;50.742;4.224;2023-10-31T03:13:58;11.00;99.90
20712;DHT22;10517;50.742;4.224;2023-10-31T03:16:24;11.10;99.90
20712;DHT22;10517;50.742;4.224;2023-10-31T03:18:49;11.10;99.90
20712;DHT22;10517;50.742;4.224;2023-10-31T03:21:15;11.10;99.90
20712;DHT22;10517;50.742;4.224;2023-10-31T03:23:43;11.00;99.90
20712;DHT22;10517;50.742;4.224;2023-10-31T03:26:09;11.00;99.90
20712;DHT22;10517;50.742;4.224;2023-10-31T03:28:34;11.00;99.90
20712;DHT22;10517;50.742;4.224;2023-10-31T03:31:00;11.10;99.90
20712;DHT22;10517;50.742;4.224;2023-10-31T03:33:25;11.20;99.90
20712;DHT22;10517;50.742;4.224;2023-10-31T03:35:51;11.10;99.90
20712;DHT22;10517;50.742;4.224;2023-10-31T03:38:16;11.20;99.90
20712;DHT22;10517;50.742;4.224;2023-10-31T03:40:42;11.00;99.90
20712;DHT22;10517;50.742;4.224;2023-10-31T03:43:08;11.10;99.90
20712;DHT22;10517;50.742;4.224;2023-10-31T03:45:34;11.10;99.90
20712;DHT22;10517;50.742;4.224;2023-10-31T03:48:00;11.20;99.90
20712;DHT22;10517;50.742;4.224;2023-10-31T03:50:25;11.20;99.90
20712;DHT22;10517;50.742;4.224;2023-10-31T03:52:52;11.20;99.90
20712;DHT22;10517;50.742;4.224;2023-10-31T03:55:18;11.30;99.90
20712;DHT22;10517;50.742;4.224;2023-10-31T03:57:43;11.20;99.90
20712;DHT22;10517;50.742;4.224;2023-10-31T04:00:09;11.30;99.90
20712;DHT22;10517;50.742;4.224;2023-10-31T04:02:37;11.30;99.90
20712;DHT22;10517;50.742;4.224;2023-10-31T04:05:05;11.30;99.90
20712;DHT22;10517;50.742;4.224;2023-10-31T04:07:30;11.20;99.90
20712;DHT22;10517;50.742;4.224;2023-10-31T04:09:56;11.10;99.90
20712;DHT22;10517;50.742;4.224;2023-10-31T04:12:22;11.10;99.90
20712;DHT22;10517;50.742;4.224;2023-10-31T04:14:47;11.10;99.90
20712;DHT22;10517;50.742;4.224;2023-10-31T04:17:13;11.10;99.90
20712;DHT22;10517;50.742;4.224;2023-10-31T04:19:39;11.20;99.90
20712;DHT22;10517;50.742;4.224;2023-10-31T04:22:05;11.20;99.90
20712;DHT22;10517;50.742;4.224;2023-10-31T04:24:31;11.30;99.90
20712;DHT22;10517;50.742;4.224;2023-10-31T04:26:57;11.20;99.90
20712;DHT22;10517;50.742;4.224;2023-10-31T04:29:23;11.20;99.90
20712;DHT22;10517;50.742;4.224;2023-10-31T04:31:48;11.20;99.90
20712;DHT22;10517;50.742;4.224;2023-10-31T04:34:14;11.10;99.90
20712;DHT22;10517;50.742;4.224;2023-10-31T04:36:40;11.10;99.90
20712;DHT22;10517;50.742;4.224;2023-10-31T04:39:06;11.20;99.90
20712;DHT22;10517;50.742;4.224;2023-10-31T04:41:31;11.30;99.90
20712;DHT22;10517;50.742;4.224;2023-10-31T04:43:57;11.30;99.90
20712;DHT22;10517;50.742;4.224;2023-10-31T04:46:25;11.40;99.90
20712;DHT22;10517;50.742;4.224;2023-10-31T04:48:52;11.40;99.90
20712;DHT22;10517;50.742;4.224;2023-10-31T04:51:19;11.40;99.90
20712;DHT22;10517;50.742;4.224;2023-10-31T04:53:44;11.40;99.90
20712;DHT22;10517;50.742;4.224;2023-10-31T04:56:14;11.50;99.90
20712;DHT22;10517;50.742;4.224;2023-10-31T04:58:44;11.50;99.90
20712;DHT22;10517;50.742;4.224;2023-10-31T05:01:11;11.60;99.90
20712;DHT22;10517;50.742;4.224;2023-10-31T05:03:38;11.60;99.90
20712;DHT22;10517;50.742;4.224;2023-10-31T05:06:05;11.70;99.90
20712;DHT22;10517;50.742;4.224;2023-10-31T05:08:31;11.60;99.90
20712;DHT22;10517;50.742;4.224;2023-10-31T05:10:58;11.60;99.90
20712;DHT22;10517;50.742;4.224;2023-10-31T05:13:24;11.50;99.90
20712;DHT22;10517;50.742;4.224;2023-10-31T05:15:50;11.50;99.90
20712;DHT22;10517;50.742;4.224;2023-10-31T05:18:17;11.60;99.90
20712;DHT22;10517;50.742;4.224;2023-10-31T05:20:42;11.50;99.90
20712;DHT22;10517;50.742;4.224;2023-10-31T05:23:08;11.60;99.90
20712;DHT22;10517;50.742;4.224;2023-10-31T05:25:34;11.60;99.90
20712;DHT22;10517;50.742;4.224;2023-10-31T05:28:00;11.60;99.90
20712;DHT22;10517;50.742;4.224;2023-10-31T05:30:26;11.70;99.90
20712;DHT22;10517;50.742;4.224;2023-10-31T05:32:52;11.60;99.90
20712;DHT22;10517;50.742;4.224;2023-10-31T05:35:18;11.60;99.90
20712;DHT22;10517;50.742;4.224;2023-10-31T05:37:45;11.60;99.90
20712;DHT22;10517;50.742;4.224;2023-10-31T05:40:12;11.60;99.90
20712;DHT22;10517;50.742;4.224;2023-10-31T05:42:38;11.60;99.90
20712;DHT22;10517;50.742;4.224;2023-10-31T05:45:05;11.60;99.90
20712;DHT22;10517;50.742;4.224;2023-10-31T05:47:31;11.60;99.90
20712;DHT22;10517;50.742;4.224;2023-10-31T05:49:56;11.60;99.90
20712;DHT22;10517;50.742;4.224;2023-10-31T05:52:23;11.70;99.90
20712;DHT22;10517;50.742;4.224;2023-10-31T05:54:48;11.70;99.90
20712;DHT22;10517;50.742;4.224;2023-10-31T05:57:14;11.70;99.90
20712;DHT22;10517;50.742;4.224;2023-10-31T05:59:40;11.70;99.90
20712;DHT22;10517;50.742;4.224;2023-10-31T06:02:05;11.60;99.90
20712;DHT22;10517;50.742;4.224;2023-10-31T06:04:31;11.70;99.90
20712;DHT22;10517;50.742;4.224;2023-10-31T06:06:57;11.60;99.90
20712;DHT22;10517;50.742;4.224;2023-10-31T06:09:23;11.60;99.90
20712;DHT22;10517;50.742;4.224;2023-10-31T06:11:48;11.60;99.90
20712;DHT22;10517;50.742;4.224;2023-10-31T06:14:14;11.60;99.90
20712;DHT22;10517;50.742;4.224;2023-10-31T06:16:40;11.60;99.90
20712;DHT22;10517;50.742;4.224;2023-10-31T06:19:07;11.60;99.90
20712;DHT22;10517;50.742;4.224;2023-10-31T06:21:33;11.60;99.90
20712;DHT22;10517;50.742;4.224;2023-10-31T06:23:59;11.60;99.90
20712;DHT22;10517;50.742;4.224;2023-10-31T06:26:25;11.60;99.90
20712;DHT22;10517;50.742;4.224;2023-10-31T06:28:50;11.60;99.90
20712;DHT22;10517;50.742;4.224;2023-10-31T06:31:16;11.50;99.90
20712;DHT22;10517;50.742;4.224;2023-10-31T06:33:42;11.50;99.90
20712;DHT22;10517;50.742;4.224;2023-10-31T06:36:08;11.50;99.90
20712;DHT22;10517;50.742;4.224;2023-10-31T06:38:34;11.50;99.90
20712;DHT22;10517;50.742;4.224;2023-10-31T06:40:59;11.50;99.90
20712;DHT22;10517;50.742;4.224;2023-10-31T06:43:25;11.50;99.90
20712;DHT22;10517;50.742;4.224;2023-10-31T06:45:51;11.40;99.90
20712;DHT22;10517;50.742;4.224;2023-10-31T06:48:17;11.40;99.90
20712;DHT22;10517;50.742;4.224;2023-10-31T06:50:43;11.30;99.90
20712;DHT22;10517;50.742;4.224;2023-10-31T06:53:08;11.30;99.90
20712;DHT22;10517;50.742;4.224;2023-10-31T06:55:34;11.30;99.90
20712;DHT22;10517;50.742;4.224;2023-10-31T06:58:00;11.40;99.90
20712;DHT22;10517;50.742;4.224;2023-10-31T07:00:26;11.40;99.90
20712;DHT22;10517;50.742;4.224;2023-10-31T07:02:52;11.30;99.90
20712;DHT22;10517;50.742;4.224;2023-10-31T07:05:18;11.40;99.90
20712;DHT22;10517;50.742;4.224;2023-10-31T07:07:46;11.50;99.90
20712;DHT22;10517;50.742;4.224;2023-10-31T07:10:12;11.50;99.90
20712;DHT22;10517;50.742;4.224;2023-10-31T07:12:37;11.60;99.90
20712;DHT22;10517;50.742;4.224;2023-10-31T07:15:03;11.60;99.90
20712;DHT22;10517;50.742;4.224;2023-10-31T07:17:30;11.70;99.90
20712;DHT22;10517;50.742;4.224;2023-10-31T07:19:56;11.80;99.90
20712;DHT22;10517;50.742;4.224;2023-10-31T07:22:22;11.80;99.90
20712;DHT22;10517;50.742;4.224;2023-10-31T07:24:50;11.90;99.90
20712;DHT22;10517;50.742;4.224;2023-10-31T07:27:17;12.00;99.90
20712;DHT22;10517;50.742;4.224;2023-10-31T07:29:43;12.00;99.90
20712;DHT22;10517;50.742;4.224;2023-10-31T07:32:09;12.10;99.90
20712;DHT22;10517;50.742;4.224;2023-10-31T07:34:35;12.10;99.90
20712;DHT22;10517;50.742;4.224;2023-10-31T07:37:01;12.10;99.90
20712;DHT22;10517;50.742;4.224;2023-10-31T07:39:27;12.10;99.90
20712;DHT22;10517;50.742;4.224;2023-10-31T07:41:52;12.10;99.90
20712;DHT22;10517;50.742;4.224;2023-10-31T07:44:18;12.20;99.90
20712;DHT22;10517;50.742;4.224;2023-10-31T07:46:44;12.20;99.90
20712;DHT22;10517;50.742;4.224;2023-10-31T07:49:09;12.20;99.90
20712;DHT22;10517;50.742;4.224;2023-10-31T07:51:35;12.20;99.90
20712;DHT22;10517;50.742;4.224;2023-10-31T07:54:01;12.20;99.90
20712;DHT22;10517;50.742;4.224;2023-10-31T07:56:27;12.30;99.90
20712;DHT22;10517;50.742;4.224;2023-10-31T07:58:53;12.30;99.90
20712;DHT22;10517;50.742;4.224;2023-10-31T08:01:20;12.40;99.90
20712;DHT22;10517;50.742;4.224;2023-10-31T08:03:47;12.40;99.90
20712;DHT22;10517;50.742;4.224;2023-10-31T08:06:13;12.40;99.90
20712;DHT22;10517;50.742;4.224;2023-10-31T08:08:39;12.50;99.90
20712;DHT22;10517;50.742;4.224;2023-10-31T08:11:08;12.50;99.90
20712;DHT22;10517;50.742;4.224;2023-10-31T08:13:36;12.50;99.90
20712;DHT22;10517;50.742;4.224;2023-10-31T08:16:02;12.60;99.90
20712;DHT22;10517;50.742;4.224;2023-10-31T08:18:27;12.50;99.90
20712;DHT22;10517;50.742;4.224;2023-10-31T08:20:53;12.50;99.90
20712;DHT22;10517;50.742;4.224;2023-10-31T08:23:19;12.60;99.90
20712;DHT22;10517;50.742;4.224;2023-10-31T08:25:45;12.70;99.90
20712;DHT22;10517;50.742;4.224;2023-10-31T08:28:11;12.70;99.90
20712;DHT22;10517;50.742;4.224;2023-10-31T08:30:37;12.80;99.90
20712;DHT22;10517;50.742;4.224;2023-10-31T08:33:04;12.90;99.90
20712;DHT22;10517;50.742;4.224;2023-10-31T08:35:30;12.90;99.90
20712;DHT22;10517;50.742;4.224;2023-10-31T08:37:56;13.10;99.90
20712;DHT22;10517;50.742;4.224;2023-10-31T08:40:23;13.10;99.90
20712;DHT22;10517;50.742;4.224;2023-10-31T08:42:48;13.20;99.90
20712;DHT22;10517;50.742;4.224;2023-10-31T08:45:14;13.30;99.90
20712;DHT22;10517;50.742;4.224;2023-10-31T08:47:40;13.30;99.90
20712;DHT22;10517;50.742;4.224;2023-10-31T08:50:07;13.40;99.90
20712;DHT22;10517;50.742;4.224;2023-10-31T08:52:37;13.50;99.90
20712;DHT22;10517;50.742;4.224;2023-10-31T08:55:03;13.50;99.90
20712;DHT22;10517;50.742;4.224;2023-10-31T08:57:30;13.40;99.90
20712;DHT22;10517;50.742;4.224;2023-10-31T08:59:55;13.50;99.90
20712;DHT22;10517;50.742;4.224;2023-10-31T09:02:28;13.60;99.90
20712;DHT22;10517;50.742;4.224;2023-10-31T09:04:53;13.60;99.90
20712;DHT22;10517;50.742;4.224;2023-10-31T09:07:19;13.70;99.90
20712;DHT22;10517;50.742;4.224;2023-10-31T09:09:45;13.70;99.90
20712;DHT22;10517;50.742;4.224;2023-10-31T09:12:11;13.60;99.90
20712;DHT22;10517;50.742;4.224;2023-10-31T09:14:36;13.70;99.90
20712;DHT22;10517;50.742;4.224;2023-10-31T09:17:02;13.70;99.90
20712;DHT22;10517;50.742;4.224;2023-10-31T09:19:28;13.60;99.90
20712;DHT22;10517;50.742;4.224;2023-10-31T09:21:55;13.60;99.90
20712;DHT22;10517;50.742;4.224;2023-10-31T09:24:21;13.60;99.90
20712;DHT22;10517;50.742;4.224;2023-10-31T09:26:46;13.40;99.90
20712;DHT22;10517;50.742;4.224;2023-10-31T09:29:12;13.50;99.90
20712;DHT22;10517;50.742;4.224;2023-10-31T09:31:38;13.50;99.90
20712;DHT22;10517;50.742;4.224;2023-10-31T09:34:04;13.30;99.90
20712;DHT22;10517;50.742;4.224;2023-10-31T09:36:33;13.40;99.90
20712;DHT22;10517;50.742;4.224;2023-10-31T09:39:02;13.50;99.90
20712;DHT22;10517;50.742;4.224;2023-10-31T09:41:29;13.60;99.90
20712;DHT22;10517;50.742;4.224;2023-10-31T09:43:57;13.60;99.90
20712;DHT22;10517;50.742;4.224;2023-10-31T09:46:23;13.70;99.90
20712;DHT22;10517;50.742;4.224;2023-10-31T09:48:50;13.70;99.90
20712;DHT22;10517;50.742;4.224;2023-10-31T09:51:17;13.70;99.90
20712;DHT22;10517;50.742;4.224;2023-10-31T09:53:44;13.60;99.90
20712;DHT22;10517;50.742;4.224;2023-10-31T09:56:10;13.60;99.90
20712;DHT22;10517;50.742;4.224;2023-10-31T09:58:37;13.60;99.90
20712;DHT22;10517;50.742;4.224;2023-10-31T10:01:05;13.60;99.90
20712;DHT22;10517;50.742;4.224;2023-10-31T10:03:30;13.60;99.90
20712;DHT22;10517;50.742;4.224;2023-10-31T10:05:57;13.70;99.90
20712;DHT22;10517;50.742;4.224;2023-10-31T10:08:23;13.70;99.90
20712;DHT22;10517;50.742;4.224;2023-10-31T10:10:52;13.70;99.90
20712;DHT22;10517;50.742;4.224;2023-10-31T10:13:19;13.70;99.90
20712;DHT22;10517;50.742;4.224;2023-10-31T10:15:46;13.70;99.90
20712;DHT22;10517;50.742;4.224;2023-10-31T10:18:31;13.60;99.90
20712;DHT22;10517;50.742;4.224;2023-10-31T10:20:59;13.60;99.90
20712;DHT22;10517;50.742;4.224;2023-10-31T10:23:25;13.60;99.90
20712;DHT22;10517;50.742;4.224;2023-10-31T10:25:52;13.50;99.90
20712;DHT22;10517;50.742;4.224;2023-10-31T10:28:18;13.40;99.90
20712;DHT22;10517;50.742;4.224;2023-10-31T10:30:48;13.40;99.90
20712;DHT22;10517;50.742;4.224;2023-10-31T10:33:15;13.50;99.90
20712;DHT22;10517;50.742;4.224;2023-10-31T10:35:42;13.50;99.90
20712;DHT22;10517;50.742;4.224;2023-10-31T10:38:19;13.60;99.90
20712;DHT22;10517;50.742;4.224;2023-10-31T10:40:48;13.70;99.90
20712;DHT22;10517;50.742;4.224;2023-10-31T10:43:21;13.70;99.90
20712;DHT22;10517;50.742;4.224;2023-10-31T10:45:55;13.70;99.90
20712;DHT22;10517;50.742;4.224;2023-10-31T10:48:25;13.70;99.90
20712;DHT22;10517;50.742;4.224;2023-10-31T10:50:59;13.70;99.90
20712;DHT22;10517;50.742;4.224;2023-10-31T10:53:30;13.70;99.90
20712;DHT22;10517;50.742;4.224;2023-10-31T10:56:07;13.70;99.90
20712;DHT22;10517;50.742;4.224;2023-10-31T10:58:44;13.80;99.90
20712;DHT22;10517;50.742;4.224;2023-10-31T11:01:11;13.80;99.90
20712;DHT22;10517;50.742;4.224;2023-10-31T11:03:38;13.70;99.90
20712;DHT22;10517;50.742;4.224;2023-10-31T11:06:05;13.80;99.90
20712;DHT22;10517;50.742;4.224;2023-10-31T11:08:31;13.80;99.90
20712;DHT22;10517;50.742;4.224;2023-10-31T11:10:57;13.70;99.90
20712;DHT22;10517;50.742;4.224;2023-10-31T11:13:24;13.70;99.90
20712;DHT22;10517;50.742;4.224;2023-10-31T11:15:55;13.70;99.90
20712;DHT22;10517;50.742;4.224;2023-10-31T11:18:23;13.60;99.90
20712;DHT22;10517;50.742;4.224;2023-10-31T11:20:50;13.60;99.90
20712;DHT22;10517;50.742;4.224;2023-10-31T11:23:16;13.50;99.90
20712;DHT22;10517;50.742;4.224;2023-10-31T11:25:45;13.40;99.90
20712;DHT22;10517;50.742;4.224;2023-10-31T11:28:16;13.40;99.90
20712;DHT22;10517;50.742;4.224;2023-10-31T11:30:42;13.40;99.90
20712;DHT22;10517;50.742;4.224;2023-10-31T11:33:13;13.40;99.90
20712;DHT22;10517;50.742;4.224;2023-10-31T11:35:39;13.50;99.90
20712;DHT22;10517;50.742;4.224;2023-10-31T11:38:07;13.60;99.90
20712;DHT22;10517;50.742;4.224;2023-10-31T11:40:36;13.40;99.90
20712;DHT22;10517;50.742;4.224;2023-10-31T11:43:06;13.50;99.90
20712;DHT22;10517;50.742;4.224;2023-10-31T11:45:44;13.50;99.90
20712;DHT22;10517;50.742;4.224;2023-10-31T11:48:12;13.50;99.90
20712;DHT22;10517;50.742;4.224;2023-10-31T11:50:38;13.40;99.90
20712;DHT22;10517;50.742;4.224;2023-10-31T11:53:12;13.30;99.90
20712;DHT22;10517;50.742;4.224;2023-10-31T11:55:42;13.30;99.90
20712;DHT22;10517;50.742;4.224;2023-10-31T11:58:16;13.20;99.90
20712;DHT22;10517;50.742;4.224;2023-10-31T12:00:43;13.20;99.90
20712;DHT22;10517;50.742;4.224;2023-10-31T12:03:10;13.30;99.90
20712;DHT22;10517;50.742;4.224;2023-10-31T12:05:35;13.30;99.90
20712;DHT22;10517;50.742;4.224;2023-10-31T12:08:01;13.30;99.90
20712;DHT22;10517;50.742;4.224;2023-10-31T12:10:28;13.30;99.90
20712;DHT22;10517;50.742;4.224;2023-10-31T12:12:57;13.40;99.90
20712;DHT22;10517;50.742;4.224;2023-10-31T12:15:24;13.30;99.90
20712;DHT22;10517;50.742;4.224;2023-10-31T12:17:50;13.30;99.90
20712;DHT22;10517;50.742;4.224;2023-10-31T12:20:16;13.30;99.90
20712;DHT22;10517;50.742;4.224;2023-10-31T12:22:43;13.20;99.90
20712;DHT22;10517;50.742;4.224;2023-10-31T12:25:10;13.00;99.90
20712;DHT22;10517;50.742;4.224;2023-10-31T12:30:10;12.90;99.90
20712;DHT22;10517;50.742;4.224;2023-10-31T12:32:36;13.00;99.90
20712;DHT22;10517;50.742;4.224;2023-10-31T12:35:03;13.00;99.90
20712;DHT22;10517;50.742;4.224;2023-10-31T12:37:28;13.20;99.90
20712;DHT22;10517;50.742;4.224;2023-10-31T12:39:56;13.30;99.90
20712;DHT22;10517;50.742;4.224;2023-10-31T12:42:23;13.50;99.90
20712;DHT22;10517;50.742;4.224;2023-10-31T12:44:55;13.60;99.90
20712;DHT22;10517;50.742;4.224;2023-10-31T12:47:24;13.60;99.90
20712;DHT22;10517;50.742;4.224;2023-10-31T12:50:15;13.70;99.90
20712;DHT22;10517;50.742;4.224;2023-10-31T12:52:53;13.70;99.90
20712;DHT22;10517;50.742;4.224;2023-10-31T12:55:29;13.80;99.90
20712;DHT22;10517;50.742;4.224;2023-10-31T12:57:55;13.70;99.90
20712;DHT22;10517;50.742;4.224;2023-10-31T13:00:22;13.70;99.90
20712;DHT22;10517;50.742;4.224;2023-10-31T13:03:11;13.70;99.90
20712;DHT22;10517;50.742;4.224;2023-10-31T13:05:37;13.80;99.90
20712;DHT22;10517;50.742;4.224;2023-10-31T13:08:14;13.90;99.90
20712;DHT22;10517;50.742;4.224;2023-10-31T13:10:40;13.90;99.90
20712;DHT22;10517;50.742;4.224;2023-10-31T13:13:06;13.90;99.90
20712;DHT22;10517;50.742;4.224;2023-10-31T13:15:31;13.90;99.90
20712;DHT22;10517;50.742;4.224;2023-10-31T13:17:58;13.90;99.90
20712;DHT22;10517;50.742;4.224;2023-10-31T13:20:24;13.90;99.90
20712;DHT22;10517;50.742;4.224;2023-10-31T13:22:49;13.90;99.90
20712;DHT22;10517;50.742;4.224;2023-10-31T13:25:15;13.90;99.90
20712;DHT22;10517;50.742;4.224;2023-10-31T13:27:43;13.80;99.90
20712;DHT22;10517;50.742;4.224;2023-10-31T13:30:10;13.90;99.90
20712;DHT22;10517;50.742;4.224;2023-10-31T13:32:37;14.00;99.90
20712;DHT22;10517;50.742;4.224;2023-10-31T13:35:06;14.10;99.90
20712;DHT22;10517;50.742;4.224;2023-10-31T13:37:33;14.20;99.90
20712;DHT22;10517;50.742;4.224;2023-10-31T13:40:00;14.50;99.90
20712;DHT22;10517;50.742;4.224;2023-10-31T13:42:26;14.70;99.90
20712;DHT22;10517;50.742;4.224;2023-10-31T13:44:51;14.90;99.90
20712;DHT22;10517;50.742;4.224;2023-10-31T13:47:17;15.00;99.90
20712;DHT22;10517;50.742;4.224;2023-10-31T13:49:43;15.20;99.90
20712;DHT22;10517;50.742;4.224;2023-10-31T13:52:08;15.20;99.90
20712;DHT22;10517;50.742;4.224;2023-10-31T13:54:34;15.30;99.90
20712;DHT22;10517;50.742;4.224;2023-10-31T13:57:00;15.40;99.90
20712;DHT22;10517;50.742;4.224;2023-10-31T13:59:26;15.30;99.90
20712;DHT22;10517;50.742;4.224;2023-10-31T14:01:52;15.20;99.90
20712;DHT22;10517;50.742;4.224;2023-10-31T14:04:19;15.00;99.90
20712;DHT22;10517;50.742;4.224;2023-10-31T14:06:45;15.00;99.90
20712;DHT22;10517;50.742;4.224;2023-10-31T14:09:11;15.10;99.90
20712;DHT22;10517;50.742;4.224;2023-10-31T14:11:38;15.20;99.90
20712;DHT22;10517;50.742;4.224;2023-10-31T14:14:04;15.30;99.90
20712;DHT22;10517;50.742;4.224;2023-10-31T14:16:36;15.40;99.90
20712;DHT22;10517;50.742;4.224;2023-10-31T14:19:02;15.60;99.90
20712;DHT22;10517;50.742;4.224;2023-10-31T14:21:28;15.70;99.90
20712;DHT22;10517;50.742;4.224;2023-10-31T14:23:54;15.70;99.90
20712;DHT22;10517;50.742;4.224;2023-10-31T14:26:21;15.80;99.90
20712;DHT22;10517;50.742;4.224;2023-10-31T14:28:47;15.70;99.90
20712;DHT22;10517;50.742;4.224;2023-10-31T14:31:14;15.60;99.90
20712;DHT22;10517;50.742;4.224;2023-10-31T14:33:39;15.60;99.90
20712;DHT22;10517;50.742;4.224;2023-10-31T14:36:06;15.60;99.90
20712;DHT22;10517;50.742;4.224;2023-10-31T14:38:32;15.50;99.90
20712;DHT22;10517;50.742;4.224;2023-10-31T14:40:58;15.50;99.90
20712;DHT22;10517;50.742;4.224;2023-10-31T14:43:24;15.40;99.90
20712;DHT22;10517;50.742;4.224;2023-10-31T14:45:50;15.30;99.90
20712;DHT22;10517;50.742;4.224;2023-10-31T14:48:15;15.20;99.90
20712;DHT22;10517;50.742;4.224;2023-10-31T14:50:41;15.10;99.90
20712;DHT22;10517;50.742;4.224;2023-10-31T14:53:07;15.00;99.90
20712;DHT22;10517;50.742;4.224;2023-10-31T14:55:34;15.00;99.90
20712;DHT22;10517;50.742;4.224;2023-10-31T14:58:00;15.00;99.90
20712;DHT22;10517;50.742;4.224;2023-10-31T15:00:26;14.90;99.90
20712;DHT22;10517;50.742;4.224;2023-10-31T15:02:52;14.80;99.90
20712;DHT22;10517;50.742;4.224;2023-10-31T15:05:17;14.80;99.90
20712;DHT22;10517;50.742;4.224;2023-10-31T15:07:43;14.70;99.90
20712;DHT22;10517;50.742;4.224;2023-10-31T15:10:09;14.60;99.90
20712;DHT22;10517;50.742;4.224;2023-10-31T15:12:35;14.50;99.90
20712;DHT22;10517;50.742;4.224;2023-10-31T15:15:01;14.40;99.90
20712;DHT22;10517;50.742;4.224;2023-10-31T15:17:26;14.30;99.90
20712;DHT22;10517;50.742;4.224;2023-10-31T15:19:52;14.10;99.90
20712;DHT22;10517;50.742;4.224;2023-10-31T15:22:18;14.10;99.90
20712;DHT22;10517;50.742;4.224;2023-10-31T15:24:43;14.10;99.90
20712;DHT22;10517;50.742;4.224;2023-10-31T15:27:09;14.00;99.90
20712;DHT22;10517;50.742;4.224;2023-10-31T15:29:35;13.90;99.90